Time;durP1;ratioP1;P1;durP2;ratioP2;P2;SDS_P1;SDS_P2;PMS_P1;PMS_P2;Temp;Humidity;BMP_temperature;BMP_pressure;BME280_temperature;BME280_humidity;BME280_pressure;Samples;Min_cycle;Max_cycle;Signal;HPM_P1;HPM_P2
2022/09/13 00:00:34;;;;;;;12.85;6.38;;;;;;;18.99;71.76;100813.00;5261934;28;20036;-70
2022/09/13 00:03:06;;;;;;;8.10;5.55;;;;;;;19.12;72.10;100816.75;5261730;28;20033;-70
2022/09/13 00:05:38;;;;;;;9.07;5.70;;;;;;;19.16;72.57;100811.31;5260728;28;20029;-70
2022/09/13 00:08:09;;;;;;;10.25;5.72;;;;;;;19.07;70.33;100812.63;5262061;28;20053;-70
2022/09/13 00:10:42;;;;;;;11.83;6.47;;;;;;;19.20;70.19;100824.31;5261853;28;20051;-70
2022/09/13 00:13:15;;;;;;;9.82;6.60;;;;;;;19.17;70.84;100818.34;5261876;28;20112;-70
2022/09/13 00:15:48;;;;;;;7.47;5.57;;;;;;;19.13;69.56;100821.13;5261540;28;20035;-69
2022/09/13 00:18:20;;;;;;;12.13;6.13;;;;;;;19.07;71.37;100818.75;5260633;28;20029;-70
2022/09/13 00:20:51;;;;;;;11.17;6.00;;;;;;;19.15;71.76;100807.84;5261732;28;20139;-70
2022/09/13 00:23:23;;;;;;;9.23;6.27;;;;;;;19.06;72.12;100798.59;5261748;28;20118;-70
2022/09/13 00:26:08;;;;;;;10.27;5.50;;;;;;;19.01;70.88;100803.19;5261146;28;20033;-70
2022/09/13 00:28:40;;;;;;;11.02;5.60;;;;;;;19.17;71.63;100794.56;5261550;28;20043;-70
2022/09/13 00:31:12;;;;;;;12.73;5.50;;;;;;;19.19;71.67;100805.91;5261592;28;20253;-71
2022/09/13 00:33:43;;;;;;;9.17;5.63;;;;;;;19.02;70.76;100799.66;5261658;28;20104;-70
2022/09/13 00:36:15;;;;;;;13.23;6.03;;;;;;;19.00;72.00;100796.22;5260335;28;20025;-71
2022/09/13 00:38:46;;;;;;;14.97;5.53;;;;;;;19.07;70.69;100796.78;5261493;28;20047;-70
2022/09/13 00:41:19;;;;;;;9.70;5.77;;;;;;;19.03;71.51;100797.84;5261766;28;20097;-70
2022/09/13 00:43:57;;;;;;;10.07;5.80;;;;;;;18.95;71.24;100787.66;5261510;28;20104;-70
2022/09/13 00:46:43;;;;;;;10.65;6.32;;;;;;;19.05;70.92;100786.28;5260075;28;20037;-73
2022/09/13 00:49:17;;;;;;;8.65;5.95;;;;;;;18.98;70.84;100784.84;5257949;28;20034;-71
2022/09/13 00:51:58;;;;;;;8.77;5.88;;;;;;;18.89;71.63;100785.31;5239905;28;20040;-69
2022/09/13 00:54:39;;;;;;;9.57;5.82;;;;;;;18.83;71.33;100775.00;5240602;28;20063;-70
2022/09/13 00:57:12;;;;;;;10.52;6.40;;;;;;;18.70;71.78;100774.72;5244807;28;20061;-71
2022/09/13 00:59:51;;;;;;;9.45;7.03;;;;;;;18.72;71.76;100770.22;5245070;28;20038;-70
2022/09/13 01:02:23;;;;;;;8.27;6.10;;;;;;;18.81;72.03;100769.78;5256291;28;20039;-70
2022/09/13 01:04:55;;;;;;;14.53;6.60;;;;;;;18.72;71.65;100775.50;5265243;28;20028;-71
2022/09/13 01:07:26;;;;;;;9.48;6.30;;;;;;;18.65;71.37;100774.94;5263660;28;20049;-70
2022/09/13 01:09:59;;;;;;;11.80;6.60;;;;;;;18.70;71.70;100778.22;5263552;28;20037;-69
2022/09/13 01:12:39;;;;;;;11.88;6.75;;;;;;;18.81;71.81;100772.44;5266121;28;20122;-70
2022/09/13 01:15:11;;;;;;;6.97;5.80;;;;;;;18.76;71.75;100769.16;5265837;28;20368;-69
2022/09/13 01:17:43;;;;;;;9.97;6.10;;;;;;;18.79;72.63;100766.38;5268368;28;20084;-70
2022/09/13 01:20:15;;;;;;;11.90;6.18;;;;;;;18.54;71.33;100767.50;5266315;28;20079;-70
2022/09/13 01:22:49;;;;;;;6.35;5.60;;;;;;;18.65;72.02;100763.53;5265411;28;20037;-70
2022/09/13 01:25:41;;;;;;;6.82;5.57;;;;;;;18.56;71.56;100765.69;5264621;28;20500;-70
2022/09/13 01:28:38;;;;;;;9.25;6.28;;;;;;;18.63;72.23;100765.38;5265157;28;20035;-70
2022/09/13 01:31:31;;;;;;;12.43;6.38;;;;;;;18.49;71.65;100763.38;5265169;28;20036;-70
2022/09/13 01:34:22;;;;;;;;;;;;;;;18.65;70.85;100761.75;5265336;28;20041;-70
2022/09/13 01:37:30;;;;;;;10.05;5.72;;;;;;;18.51;71.71;100764.16;5264898;28;19940;-71
2022/09/13 01:40:26;;;;;;;9.77;6.68;;;;;;;18.56;71.37;100765.69;5265056;28;20072;-70
2022/09/13 01:43:27;;;;;;;10.27;5.70;;;;;;;18.47;71.74;100760.81;5264591;28;20037;-70
2022/09/13 01:46:07;;;;;;;9.95;6.20;;;;;;;18.39;72.48;100763.81;5264658;28;20032;-70
2022/09/13 01:49:00;;;;;;;10.45;6.10;;;;;;;18.54;72.42;100762.22;5264638;28;20032;-70
2022/09/13 01:51:44;;;;;;;9.63;6.18;;;;;;;18.58;74.13;100755.06;5264354;28;20078;-70
2022/09/13 01:54:42;;;;;;;6.07;5.47;;;;;;;18.62;73.35;100761.03;5264398;28;20025;-70
2022/09/13 01:57:29;;;;;;;7.28;5.32;;;;;;;18.63;74.09;100749.53;5264417;28;20024;-70
2022/09/13 02:00:08;;;;;;;7.30;5.68;;;;;;;18.48;74.61;100751.09;5264278;28;20044;-70
2022/09/13 02:03:03;;;;;;;7.07;5.40;;;;;;;18.57;74.70;100754.16;5264395;28;20029;-70
2022/09/13 02:05:51;;;;;;;9.25;5.18;;;;;;;18.48;76.10;100752.00;5263632;28;20033;-70
2022/09/13 02:08:44;;;;;;;7.82;5.05;;;;;;;18.48;76.18;100752.00;5263017;28;20520;-70
2022/09/13 02:11:19;;;;;;;11.85;5.15;;;;;;;18.45;76.67;100760.03;5264495;28;20111;-70
2022/09/13 02:13:53;;;;;;;6.78;4.53;;;;;;;18.48;78.19;100754.63;5264263;28;20060;-70
2022/09/13 02:16:33;;;;;;;8.90;5.57;;;;;;;18.57;77.52;100755.97;5264216;28;20033;-71
2022/09/13 02:19:13;;;;;;;7.25;5.07;;;;;;;18.57;77.86;100754.16;5263038;28;20031;-70
2022/09/13 02:21:56;;;;;;;7.95;4.72;;;;;;;18.51;78.17;100753.59;5263902;28;20024;-70
2022/09/13 02:24:33;;;;;;;7.70;5.80;;;;;;;18.43;77.71;100758.38;5263678;28;20530;-70
2022/09/13 02:27:13;;;;;;;10.52;5.55;;;;;;;18.44;79.61;100760.09;5262523;28;20033;-70
2022/09/13 02:29:48;;;;;;;8.52;4.88;;;;;;;18.45;79.49;100759.16;5263964;28;20053;-70
2022/09/13 02:32:39;;;;;;;8.73;5.65;;;;;;;18.48;78.76;100759.91;5263646;28;20052;-70
2022/09/13 02:35:17;;;;;;;5.63;4.57;;;;;;;18.41;80.15;100759.31;5264015;28;20479;-70
2022/09/13 02:37:57;;;;;;;6.00;4.50;;;;;;;18.45;79.75;100764.44;5263688;28;20036;-70
2022/09/13 02:40:39;;;;;;;10.52;5.32;;;;;;;18.30;78.46;100761.56;5263791;28;20388;-70
2022/09/13 02:43:19;;;;;;;8.55;5.18;;;;;;;18.29;78.85;100766.91;5263461;28;20025;-70
2022/09/13 02:46:01;;;;;;;9.30;5.20;;;;;;;18.31;78.55;100773.00;5263329;28;20056;-70
2022/09/13 02:48:46;;;;;;;9.18;5.55;;;;;;;18.11;77.22;100777.41;5263299;28;20029;-70
2022/09/13 02:51:50;;;;;;;10.85;5.50;;;;;;;18.14;77.84;100781.66;5263550;28;20046;-69
2022/09/13 02:54:32;;;;;;;7.00;5.18;;;;;;;18.02;77.63;100783.94;5263037;28;20032;-69
2022/09/13 02:57:30;;;;;;;7.47;4.80;;;;;;;17.97;77.22;100772.72;5263209;28;20104;-70
2022/09/13 03:00:01;;;;;;;8.45;5.38;;;;;;;17.99;77.12;100772.66;5259996;28;20079;-70
2022/09/13 03:02:33;;;;;;;10.80;5.47;;;;;;;17.92;77.37;100776.47;5263032;28;20056;-70
2022/09/13 03:05:05;;;;;;;7.18;5.25;;;;;;;17.81;77.96;100772.50;5263201;28;20160;-70
2022/09/13 03:07:36;;;;;;;6.63;5.70;;;;;;;17.88;78.28;100770.47;5262998;28;20072;-70
2022/09/13 03:10:12;;;;;;;10.10;5.53;;;;;;;17.83;78.35;100769.78;5263137;28;20065;-70
2022/09/13 03:12:46;;;;;;;10.13;5.03;;;;;;;17.92;77.01;100773.84;5262776;28;20032;-71
2022/09/13 03:15:30;;;;;;;9.07;5.18;;;;;;;17.91;77.87;100769.50;5263135;28;20028;-71
2022/09/13 03:18:18;;;;;;;8.82;5.47;;;;;;;17.95;77.26;100771.94;5262770;28;20060;-70
2022/09/13 03:21:10;;;;;;;7.47;5.53;;;;;;;17.90;77.48;100762.50;5262780;28;20060;-70
2022/09/13 03:24:00;;;;;;;9.82;5.25;;;;;;;17.82;77.07;100763.69;5261773;28;20052;-70
2022/09/13 03:26:41;;;;;;;6.68;5.40;;;;;;;17.93;77.35;100765.00;5262268;28;20036;-70
2022/09/13 03:29:30;;;;;;;7.15;5.05;;;;;;;17.89;78.69;100764.28;5262483;28;20460;-69
2022/09/13 03:32:12;;;;;;;6.03;4.65;;;;;;;17.92;79.79;100761.53;5263017;28;20155;-70
2022/09/13 03:34:49;;;;;;;7.75;5.47;;;;;;;17.84;77.65;100761.81;5262512;28;20433;-70
2022/09/13 03:37:49;;;;;;;7.60;5.22;;;;;;;17.99;77.58;100754.19;5262451;28;20082;-70
2022/09/13 03:40:33;;;;;;;7.63;5.30;;;;;;;17.84;78.96;100756.56;5262432;28;20024;-70
2022/09/13 03:43:34;;;;;;;9.05;5.53;;;;;;;17.94;78.19;100769.38;5262115;28;20037;-70
2022/09/13 03:46:12;;;;;;;7.47;5.65;;;;;;;17.89;78.37;100763.41;5262187;28;20028;-70
2022/09/13 03:48:44;;;;;;;9.95;6.18;;;;;;;17.75;78.83;100759.56;5262784;28;20025;-69
2022/09/13 03:51:15;;;;;;;6.88;5.68;;;;;;;17.78;78.75;100767.34;5262191;28;20036;-70
2022/09/13 03:53:55;;;;;;;7.80;5.63;;;;;;;17.73;79.28;100753.53;5262178;28;20031;-70
2022/09/13 03:56:26;;;;;;;11.63;5.82;;;;;;;17.71;80.08;100742.19;5261669;28;20036;-70
2022/09/13 03:58:58;;;;;;;6.93;5.40;;;;;;;17.69;78.88;100757.19;5261857;28;20037;-70
2022/09/13 04:01:29;;;;;;;7.23;5.70;;;;;;;17.64;79.80;100743.38;5261936;28;20120;-70
2022/09/13 04:04:01;;;;;;;7.93;5.83;;;;;;;17.63;78.50;100760.13;5261991;28;20033;-70
2022/09/13 04:06:33;;;;;;;8.15;6.20;;;;;;;17.72;79.45;100749.16;5261925;28;20068;-70
2022/09/13 04:09:04;;;;;;;8.47;5.90;;;;;;;17.67;79.12;100759.06;5261871;28;20112;-70
2022/09/13 04:11:36;;;;;;;6.90;6.00;;;;;;;17.62;78.85;100763.66;5260782;28;20029;-71
2022/09/13 04:14:07;;;;;;;6.95;6.25;;;;;;;17.60;79.01;100763.72;5261729;28;20033;-70
2022/09/13 04:16:39;;;;;;;15.07;6.20;;;;;;;17.59;78.85;100763.81;5261842;28;20528;-70
2022/09/13 04:19:10;;;;;;;9.80;6.23;;;;;;;17.60;78.44;100776.91;5261674;28;20104;-70
2022/09/13 04:21:41;;;;;;;9.43;6.37;;;;;;;17.56;80.63;100772.69;5261444;28;20059;-69
2022/09/13 04:24:13;;;;;;;10.77;6.70;;;;;;;17.48;79.74;100783.56;5261618;28;20108;-70
2022/09/13 04:26:50;;;;;;;8.90;6.85;;;;;;;17.48;80.04;100783.56;5261448;28;20029;-70
2022/09/13 04:29:23;;;;;;;7.38;6.22;;;;;;;17.46;81.18;100782.75;5261409;28;20037;-70
2022/09/13 04:31:54;;;;;;;9.77;6.28;;;;;;;17.35;80.15;100784.97;5261725;28;20041;-70
2022/09/13 04:34:26;;;;;;;7.97;5.97;;;;;;;17.40;81.20;100788.28;5261606;28;20036;-70
2022/09/13 04:36:58;;;;;;;11.30;6.28;;;;;;;17.42;80.79;100796.13;5261836;28;20388;-69
2022/09/13 04:39:29;;;;;;;9.57;6.67;;;;;;;17.28;81.44;100801.97;5262165;28;20033;-70
2022/09/13 04:42:01;;;;;;;12.10;6.50;;;;;;;17.34;80.96;100796.44;5262013;28;20060;-70
2022/09/13 04:44:33;;;;;;;10.82;5.93;;;;;;;17.34;81.41;100808.75;5261035;28;20029;-71
2022/09/13 04:47:05;;;;;;;11.95;6.30;;;;;;;17.26;82.35;100809.94;5263558;28;20472;-69
2022/09/13 04:49:36;;;;;;;13.48;7.20;;;;;;;17.25;82.57;100804.72;5267828;28;20384;-71
2022/09/13 04:52:08;;;;;;;11.23;6.37;;;;;;;17.31;82.26;100799.22;5264676;28;20037;-69
2022/09/13 04:54:39;;;;;;;9.27;6.77;;;;;;;17.16;82.59;100797.19;5261870;28;20037;-71
2022/09/13 04:57:11;;;;;;;8.27;6.73;;;;;;;17.12;82.35;100802.56;5261410;28;20057;-71
2022/09/13 04:59:42;;;;;;;9.97;7.33;;;;;;;17.18;83.96;100796.22;5261725;28;20143;-71
2022/09/13 05:02:14;;;;;;;8.40;7.37;;;;;;;17.12;82.66;100809.63;5261286;28;20538;-70
2022/09/13 05:04:45;;;;;;;10.40;6.53;;;;;;;17.18;83.20;100800.59;5261409;28;20075;-70
2022/09/13 05:07:17;;;;;;;8.37;6.47;;;;;;;17.23;83.89;100796.88;5261024;28;20404;-71
2022/09/13 05:09:48;;;;;;;7.90;6.63;;;;;;;17.24;83.37;100798.59;5259903;28;20174;-71
2022/09/13 05:12:19;;;;;;;10.77;7.83;;;;;;;17.30;83.78;100800.13;5261617;28;20037;-69
2022/09/13 05:14:51;;;;;;;10.27;8.20;;;;;;;17.12;82.13;100799.94;5261047;28;20083;-70
2022/09/13 05:17:22;;;;;;;7.90;6.97;;;;;;;17.28;84.28;100794.06;5261514;28;20029;-70
2022/09/13 05:19:53;;;;;;;14.17;7.67;;;;;;;17.23;83.94;100790.75;5261003;28;20033;-70
2022/09/13 05:22:25;;;;;;;9.00;6.27;;;;;;;17.27;84.36;100790.53;5260881;28;20040;-70
2022/09/13 05:24:56;;;;;;;8.73;6.90;;;;;;;17.21;84.40;100800.47;5260443;28;20049;-70
2022/09/13 05:27:27;;;;;;;14.83;6.73;;;;;;;17.34;85.04;100801.72;5261172;28;20029;-72
2022/09/13 05:29:59;;;;;;;8.03;6.53;;;;;;;17.29;86.35;100798.38;5261054;28;20033;-72
2022/09/13 05:32:31;;;;;;;11.27;6.33;;;;;;;17.34;87.16;100808.75;5260967;28;20037;-70
2022/09/13 05:35:02;;;;;;;8.57;5.75;;;;;;;17.37;87.32;100795.44;5261201;28;20037;-71
2022/09/13 05:37:34;;;;;;;8.23;6.53;;;;;;;17.30;86.73;100805.38;5260849;28;20033;-71
2022/09/13 05:40:06;;;;;;;9.13;6.73;;;;;;;17.39;87.07;100812.03;5261137;28;20025;-70
2022/09/13 05:42:37;;;;;;;7.75;6.93;;;;;;;17.34;86.89;100812.25;5262941;28;20044;-70
2022/09/13 05:45:09;;;;;;;8.50;6.50;;;;;;;17.44;87.28;100812.75;5264738;28;20040;-70
2022/09/13 05:47:40;;;;;;;8.98;6.60;;;;;;;17.45;88.59;100807.41;5264760;28;20033;-70
2022/09/13 05:50:12;;;;;;;8.80;6.73;;;;;;;17.49;88.05;100810.75;5263208;28;20059;-70
2022/09/13 05:52:43;;;;;;;10.83;7.27;;;;;;;17.50;87.76;100815.13;5264643;28;20482;-71
2022/09/13 05:55:15;;;;;;;11.57;7.70;;;;;;;17.46;87.40;100809.09;5264119;28;20033;-69
2022/09/13 05:57:46;;;;;;;12.30;6.77;;;;;;;17.46;87.41;100813.53;5264388;28;20037;-70
2022/09/13 06:00:18;;;;;;;10.55;6.68;;;;;;;17.44;87.83;100816.22;5263410;28;20081;-71
2022/09/13 06:02:49;;;;;;;7.93;7.07;;;;;;;17.41;86.65;100815.50;5264389;28;20044;-71
2022/09/13 06:05:21;;;;;;;10.00;7.77;;;;;;;17.46;87.75;100810.88;5263215;28;20086;-71
2022/09/13 06:07:52;;;;;;;11.67;6.87;;;;;;;17.55;88.93;100802.63;5264597;28;20488;-71
2022/09/13 06:10:24;;;;;;;13.60;6.87;;;;;;;17.63;87.55;100807.56;5264080;28;20032;-70
2022/09/13 06:12:55;;;;;;;10.10;7.03;;;;;;;17.67;86.56;100803.88;5264251;28;20516;-70
2022/09/13 06:15:27;;;;;;;11.50;7.43;;;;;;;17.61;87.60;100812.03;5264389;28;20335;-70
2022/09/13 06:17:58;;;;;;;8.30;7.43;;;;;;;17.65;88.00;100813.63;5264019;28;20036;-70
2022/09/13 06:20:29;;;;;;;12.90;7.83;;;;;;;17.58;88.33;100812.16;5263960;28;20120;-71
2022/09/13 06:23:01;;;;;;;9.17;8.27;;;;;;;17.54;84.99;100813.22;5262831;28;20029;-70
2022/09/13 06:25:32;;;;;;;13.17;8.67;;;;;;;17.60;86.38;100808.53;5263527;28;20029;-70
2022/09/13 06:28:04;;;;;;;11.20;7.93;;;;;;;17.72;88.66;100815.06;5263918;28;20473;-70
2022/09/13 06:30:35;;;;;;;10.30;7.87;;;;;;;17.73;88.67;100808.03;5263991;28;20033;-71
2022/09/13 06:33:07;;;;;;;10.87;8.43;;;;;;;17.75;87.95;100799.13;5263697;28;20275;-71
2022/09/13 06:35:38;;;;;;;11.93;7.90;;;;;;;17.89;89.40;100801.22;5264230;28;20033;-71
2022/09/13 06:38:09;;;;;;;12.60;8.20;;;;;;;17.94;89.47;100803.66;5263689;28;20060;-71
2022/09/13 06:40:41;;;;;;;12.73;9.27;;;;;;;17.84;84.45;100800.53;5263667;28;20120;-71
2022/09/13 06:43:14;;;;;;;9.77;8.77;;;;;;;17.96;86.55;100794.75;5263569;28;20029;-72
2022/09/13 06:45:45;;;;;;;13.07;9.07;;;;;;;18.12;87.11;100796.72;5263390;28;20040;-70
2022/09/13 06:48:17;;;;;;;9.87;8.17;;;;;;;18.08;85.21;100796.00;5263655;28;20384;-70
2022/09/13 06:50:48;;;;;;;16.13;9.13;;;;;;;18.10;83.66;100803.84;5262237;28;20040;-71
2022/09/13 06:53:19;;;;;;;10.87;9.17;;;;;;;18.14;84.58;100806.25;5261839;28;20506;-71
2022/09/13 06:56:06;;;;;;;14.47;9.47;;;;;;;18.27;83.63;100813.63;5262776;28;20503;-71
2022/09/13 06:58:38;;;;;;;13.93;9.38;;;;;;;18.23;85.06;100805.00;5263288;28;20375;-70
2022/09/13 07:01:14;;;;;;;12.43;9.40;;;;;;;18.25;83.56;100807.59;5263218;28;20067;-71
2022/09/13 07:03:49;;;;;;;10.90;9.63;;;;;;;18.30;82.89;100809.06;5261891;28;20029;-71
2022/09/13 07:06:28;;;;;;;23.38;13.15;;;;;;;18.31;81.75;100810.78;5262983;28;20083;-71
2022/09/13 07:09:01;;;;;;;13.00;10.75;;;;;;;18.55;81.55;100815.91;5263363;28;20029;-71
2022/09/13 07:11:35;;;;;;;15.50;10.38;;;;;;;18.46;80.83;100814.53;5263075;28;20025;-71
2022/09/13 07:14:07;;;;;;;13.88;9.90;;;;;;;18.59;82.64;100804.25;5263406;28;20029;-71
2022/09/13 07:16:39;;;;;;;14.75;11.00;;;;;;;18.61;79.81;100817.41;5263180;28;20202;-70
2022/09/13 07:19:19;;;;;;;14.93;10.45;;;;;;;18.68;80.07;100806.47;5263068;28;20120;-71
2022/09/13 07:21:50;;;;;;;14.30;11.00;;;;;;;18.90;80.25;100809.03;5262968;28;20036;-71
2022/09/13 07:24:22;;;;;;;16.93;12.43;;;;;;;18.90;78.44;100808.13;5262724;28;20464;-71
2022/09/13 07:26:53;;;;;;;19.57;11.80;;;;;;;19.04;80.47;100818.06;5262404;28;20039;-70
2022/09/13 07:29:24;;;;;;;16.50;12.23;;;;;;;19.25;80.66;100817.03;5262518;28;20036;-71
2022/09/13 07:31:57;;;;;;;14.47;12.40;;;;;;;19.21;77.74;100820.75;5262595;28;20036;-71
2022/09/13 07:34:28;;;;;;;;;;;;;;;19.49;77.72;100824.69;5263020;28;20037;-72
2022/09/13 07:37:01;;;;;;;14.87;12.67;;;;;;;19.36;77.94;100823.59;5262852;28;19958;-71
2022/09/13 07:39:32;;;;;;;17.35;13.10;;;;;;;19.30;76.71;100833.53;5262593;28;20379;-71
2022/09/13 07:42:03;;;;;;;15.60;13.80;;;;;;;19.37;76.67;100830.56;5262384;28;20033;-71
2022/09/13 07:44:35;;;;;;;15.80;13.20;;;;;;;19.52;79.52;100837.75;5262909;28;20029;-71
2022/09/13 07:47:06;;;;;;;17.93;12.67;;;;;;;19.63;77.30;100840.72;5262437;28;20037;-71
2022/09/13 07:49:38;;;;;;;13.93;12.13;;;;;;;19.76;78.78;100841.00;5262526;28;20047;-70
2022/09/13 07:52:09;;;;;;;16.03;14.23;;;;;;;19.85;78.29;100832.59;5262301;28;20166;-71
2022/09/13 07:54:41;;;;;;;16.93;13.90;;;;;;;19.98;77.27;100827.53;5261090;28;20049;-71
2022/09/13 07:57:12;;;;;;;16.83;12.80;;;;;;;20.06;75.72;100834.22;5262107;28;20033;-71
2022/09/13 07:59:43;;;;;;;15.97;14.33;;;;;;;20.10;76.24;100839.28;5261122;28;20048;-71
2022/09/13 08:02:16;;;;;;;18.03;14.00;;;;;;;20.19;76.51;100845.91;5261209;28;20025;-70
2022/09/13 08:04:48;;;;;;;21.50;15.32;;;;;;;20.24;75.33;100835.91;5261422;28;20021;-70
2022/09/13 08:07:19;;;;;;;17.60;15.73;;;;;;;20.33;75.14;100837.22;5262288;28;20060;-71
2022/09/13 08:09:51;;;;;;;22.43;17.10;;;;;;;20.33;75.01;100837.22;5261220;28;20040;-70
2022/09/13 08:12:22;;;;;;;22.08;16.33;;;;;;;20.47;75.12;100837.34;5262455;28;20353;-70
2022/09/13 08:14:54;;;;;;;24.80;19.10;;;;;;;20.57;74.49;100840.34;5261250;28;20033;-69
2022/09/13 08:17:25;;;;;;;22.20;16.77;;;;;;;20.77;74.26;100840.16;5262812;28;20071;-71
2022/09/13 08:19:57;;;;;;;22.50;18.57;;;;;;;21.01;76.05;100844.16;5265796;28;20096;-71
2022/09/13 08:22:28;;;;;;;23.73;18.40;;;;;;;21.04;73.03;100844.88;5263252;28;20480;-71
2022/09/13 08:25:00;;;;;;;;;;;;;;;21.37;73.11;100846.56;5262058;28;20053;-71
2022/09/13 08:27:32;;;;;;;21.63;19.33;;;;;;;21.31;74.22;100842.44;5262291;28;19913;-71
2022/09/13 08:30:04;;;;;;;22.77;19.80;;;;;;;21.48;74.36;100852.13;5260499;28;20483;-71
2022/09/13 08:32:35;;;;;;;22.30;18.90;;;;;;;21.54;73.83;100852.72;5261894;28;20033;-71
2022/09/13 08:35:07;;;;;;;22.80;20.00;;;;;;;21.67;73.85;100856.38;5261853;28;20051;-71
2022/09/13 08:37:38;;;;;;;23.83;21.43;;;;;;;21.53;71.61;100859.81;5261878;28;20036;-72
2022/09/13 08:40:10;;;;;;;23.70;20.20;;;;;;;21.51;73.25;100859.06;5261592;28;20025;-71
2022/09/13 08:42:56;;;;;;;21.98;19.63;;;;;;;21.57;73.48;100863.16;5261517;28;20075;-71
2022/09/13 08:45:28;;;;;;;22.95;20.55;;;;;;;21.63;74.25;100862.78;5261984;28;20055;-71
2022/09/13 08:48:10;;;;;;;23.33;20.50;;;;;;;21.63;73.39;100865.44;5261766;28;20120;-70
2022/09/13 08:50:43;;;;;;;27.02;20.38;;;;;;;21.78;74.24;100859.25;5261692;28;20043;-71
2022/09/13 08:53:24;;;;;;;24.73;19.60;;;;;;;21.98;74.25;100863.38;5260559;28;20036;-71
2022/09/13 08:56:04;;;;;;;22.10;19.77;;;;;;;22.07;72.31;100861.13;5261268;28;20032;-71
2022/09/13 08:58:43;;;;;;;21.70;19.70;;;;;;;22.24;71.49;100860.13;5261633;28;20430;-70
2022/09/13 09:01:22;;;;;;;24.08;21.48;;;;;;;22.62;70.09;100854.25;5261296;28;20106;-71
2022/09/13 09:04:19;;;;;;;24.88;21.98;;;;;;;22.91;68.12;100855.97;5261662;28;20116;-71
2022/09/13 09:07:14;;;;;;;22.75;20.35;;;;;;;23.47;69.66;100849.72;5260293;28;20061;-69
2022/09/13 09:10:23;;;;;;;21.63;19.45;;;;;;;24.35;67.34;100849.16;5261312;28;20072;-70
2022/09/13 09:13:04;;;;;;;20.52;18.55;;;;;;;24.34;63.97;100836.78;5261372;28;20636;-71
2022/09/13 09:15:42;;;;;;;21.25;18.98;;;;;;;23.98;63.66;100838.38;5263508;28;20087;-72
2022/09/13 09:18:17;;;;;;;20.58;18.45;;;;;;;24.07;65.35;100840.44;5266083;28;20028;-70
2022/09/13 09:20:55;;;;;;;25.25;18.67;;;;;;;24.11;63.31;100838.41;5266121;28;20029;-71
2022/09/13 09:23:37;;;;;;;25.63;20.38;;;;;;;23.71;63.83;100838.41;5265734;28;20060;-71
2022/09/13 09:26:19;;;;;;;28.33;20.75;;;;;;;24.14;65.89;100840.84;5265683;28;20061;-71
2022/09/13 09:28:54;;;;;;;22.05;19.75;;;;;;;24.39;64.59;100840.84;5267432;28;20472;-71
2022/09/13 09:31:44;;;;;;;21.40;18.70;;;;;;;25.24;64.30;100841.94;5268293;28;20099;-70
2022/09/13 09:34:25;;;;;;;20.35;17.27;;;;;;;26.09;61.88;100833.81;5266849;28;20067;-72
2022/09/13 09:37:03;;;;;;;20.60;18.33;;;;;;;26.28;59.45;100838.56;5268537;28;20068;-70
2022/09/13 09:39:38;;;;;;;19.85;17.13;;;;;;;26.28;56.15;100851.94;5269310;28;20033;-71
2022/09/13 09:42:15;;;;;;;19.02;17.13;;;;;;;25.88;59.16;100838.94;5267878;28;20036;-70
2022/09/13 09:45:32;;;;;;;23.23;18.98;;;;;;;26.67;57.91;100839.06;5267062;28;20045;-72
2022/09/13 09:48:11;;;;;;;26.33;17.40;;;;;;;26.42;59.92;100832.16;5265392;28;20476;-71
2022/09/13 09:50:57;;;;;;;19.95;17.75;;;;;;;26.31;56.97;100840.16;5265647;28;20025;-70
2022/09/13 09:53:34;;;;;;;17.48;15.35;;;;;;;26.78;59.30;100832.88;5264664;28;20036;-71
2022/09/13 09:56:25;;;;;;;19.77;17.75;;;;;;;26.41;55.43;100830.44;5264827;28;20063;-71
2022/09/13 09:58:56;;;;;;;18.27;16.38;;;;;;;26.89;55.76;100834.69;5263717;28;20036;-71
2022/09/13 10:01:33;;;;;;;;;;;;;;;28.41;56.03;100831.78;5264899;28;20387;-71
2022/09/13 10:04:10;;;;;;;17.08;15.30;;;;;;;27.93;54.38;100840.38;5264870;28;19913;-71
2022/09/13 10:06:42;;;;;;;15.85;14.07;;;;;;;28.38;51.60;100842.78;5264626;28;20421;-71
2022/09/13 10:09:19;;;;;;;15.55;13.02;;;;;;;27.78;51.82;100838.03;5263157;28;20080;-71
2022/09/13 10:11:58;;;;;;;16.02;13.23;;;;;;;27.67;52.32;100839.94;5264471;28;20476;-72
2022/09/13 10:14:36;;;;;;;14.88;13.35;;;;;;;28.60;53.31;100828.38;5264263;28;20490;-72
2022/09/13 10:17:17;;;;;;;16.75;14.77;;;;;;;28.73;51.58;100830.81;5264718;28;20032;-71
2022/09/13 10:20:00;;;;;;;15.80;13.27;;;;;;;29.70;49.99;100835.44;5264169;28;20040;-71
2022/09/13 10:22:32;;;;;;;16.58;13.07;;;;;;;29.79;46.40;100828.41;5263983;28;20032;-72
2022/09/13 10:25:24;;;;;;;15.70;14.10;;;;;;;30.19;48.78;100838.06;5263912;28;20492;-72
2022/09/13 10:27:58;;;;;;;15.98;14.38;;;;;;;29.88;45.44;100830.19;5262221;28;20067;-72
2022/09/13 10:30:35;;;;;;;12.77;11.48;;;;;;;29.98;46.43;100830.22;5264396;28;20029;-72
2022/09/13 10:33:26;;;;;;;13.10;11.70;;;;;;;29.96;47.60;100826.78;5263893;28;20047;-71
2022/09/13 10:36:02;;;;;;;15.80;12.30;;;;;;;28.33;49.78;100829.75;5264044;28;20092;-71
2022/09/13 10:38:37;;;;;;;15.32;13.75;;;;;;;28.40;48.56;100823.88;5263853;28;20119;-72
2022/09/13 10:41:20;;;;;;;15.82;14.15;;;;;;;28.05;50.40;100833.13;5264134;28;20032;-71
2022/09/13 10:43:59;;;;;;;16.52;14.77;;;;;;;27.38;54.98;100829.81;5263625;28;20033;-71
2022/09/13 10:46:38;;;;;;;15.65;12.73;;;;;;;26.75;56.23;100823.25;5262643;28;20040;-71
2022/09/13 10:49:45;;;;;;;16.42;13.68;;;;;;;26.63;55.54;100831.38;5263742;28;20033;-71
2022/09/13 10:52:34;;;;;;;15.90;13.10;;;;;;;25.93;57.16;100830.59;5263860;28;20400;-71
2022/09/13 10:55:18;;;;;;;15.10;12.63;;;;;;;25.09;57.59;100823.44;5263200;28;20048;-71
2022/09/13 10:57:52;;;;;;;16.40;11.93;;;;;;;25.13;60.63;100818.72;5263321;28;20029;-71
2022/09/13 11:01:01;;;;;;;12.80;11.57;;;;;;;25.29;61.63;100807.78;5263680;28;20032;-72
2022/09/13 11:03:51;;;;;;;15.07;12.07;;;;;;;25.97;61.21;100810.69;5218702;28;20041;-71
2022/09/13 11:07:01;;;;;;;13.43;10.80;;;;;;;26.70;58.75;100805.91;5262927;28;20080;-70
2022/09/13 11:09:41;;;;;;;14.02;11.98;;;;;;;26.29;56.95;100804.66;5199122;28;20129;-71
2022/09/13 11:12:31;;;;;;;16.15;11.98;;;;;;;27.18;58.40;100799.34;5199437;28;20044;-70
2022/09/13 11:15:07;;;;;;;14.70;12.55;;;;;;;27.20;55.15;100798.22;5246051;28;20045;-72
2022/09/13 11:18:03;;;;;;;16.05;13.18;;;;;;;27.34;55.45;100801.59;5263207;28;20028;-71
2022/09/13 11:21:06;;;;;;;16.33;11.35;;;;;;;28.17;54.53;100798.09;5262995;28;20033;-71
2022/09/13 11:23:38;;;;;;;13.57;11.25;;;;;;;29.57;50.89;100790.06;5254629;28;20044;-72
2022/09/13 11:26:27;;;;;;;14.05;12.32;;;;;;;30.45;46.48;100784.47;5262551;28;20041;-71
2022/09/13 11:29:04;;;;;;;13.35;11.30;;;;;;;31.70;44.96;100795.50;5262810;28;20036;-71
2022/09/13 11:31:55;;;;;;;12.55;11.27;;;;;;;33.20;42.26;100794.13;5262929;28;20025;-72
2022/09/13 11:34:48;;;;;;;13.30;10.93;;;;;;;33.80;39.29;100787.56;5262824;28;20040;-71
2022/09/13 11:37:45;;;;;;;11.57;7.50;;;;;;;35.31;36.92;100799.22;5262750;28;20123;-71
2022/09/13 11:40:27;;;;;;;11.90;8.77;;;;;;;35.14;36.58;100795.78;5262257;28;20028;-71
2022/09/13 11:43:18;;;;;;;10.10;9.10;;;;;;;35.97;33.25;100785.94;5264018;28;20029;-71
2022/09/13 11:46:27;;;;;;;10.33;7.60;;;;;;;36.41;32.99;100785.06;5264712;28;20036;-71
2022/09/13 11:49:17;;;;;;;9.77;7.93;;;;;;;34.64;35.01;100787.13;5267571;28;20021;-73
2022/09/13 11:52:07;;;;;;;9.82;8.00;;;;;;;33.57;38.15;100790.09;5262696;28;20025;-71
2022/09/13 11:54:46;;;;;;;13.32;8.65;;;;;;;31.63;39.80;100788.03;5262406;28;20103;-70
2022/09/13 11:57:28;;;;;;;10.70;9.07;;;;;;;29.91;43.90;100776.16;5262271;28;20420;-72
2022/09/13 12:00:07;;;;;;;12.70;8.20;;;;;;;29.54;49.14;100776.09;5262715;28;20129;-72
2022/09/13 12:02:51;;;;;;;11.30;8.73;;;;;;;30.73;44.92;100779.06;5262029;28;20028;-72
2022/09/13 12:05:26;;;;;;;9.50;8.13;;;;;;;30.86;42.37;100782.25;5262375;28;20104;-71
2022/09/13 12:08:04;;;;;;;11.02;7.30;;;;;;;31.93;42.76;100772.41;5262010;28;20115;-71